createdAt,value
2023-01-11T00:04:36.494Z,98284.47
2023-01-11T00:10:01.815Z,98291.78
2023-01-11T00:15:27.471Z,98295.50
2023-01-11T00:21:01.450Z,98280.16
2023-01-11T00:26:26.562Z,98276.16
2023-01-11T00:31:50.428Z,98256.19
2023-01-11T00:37:18.428Z,98266.94
2023-01-11T00:43:04.308Z,98241.25
2023-01-11T00:48:29.454Z,98216.56
2023-01-11T00:53:58.500Z,98203.38
2023-01-11T00:59:23.479Z,98202.25
2023-01-11T01:04:48.963Z,98186.41
2023-01-11T01:10:18.437Z,98191.00
2023-01-11T01:15:43.481Z,98204.19
2023-01-11T01:21:14.470Z,98199.59
2023-01-11T01:26:42.517Z,98191.38
2023-01-11T01:32:08.491Z,98195.59
2023-01-11T01:37:33.527Z,98200.69
2023-01-11T01:43:00.470Z,98203.22
2023-01-11T01:48:30.466Z,98192.56
2023-01-11T01:54:00.557Z,98182.25
2023-01-11T01:59:30.505Z,98164.31
2023-01-11T02:04:58.484Z,98158.75
2023-01-11T02:10:25.508Z,98145.75
2023-01-11T02:15:52.527Z,98126.84
2023-01-11T02:21:31.530Z,98115.66
2023-01-11T02:27:31.459Z,98118.09
2023-01-11T02:33:08.526Z,98102.53
2023-01-11T02:38:43.475Z,98097.81
2023-01-11T02:44:33.488Z,98107.38
2023-01-11T02:50:09.549Z,98100.09
2023-01-11T02:55:39.529Z,98096.44
2023-01-11T03:01:05.534Z,98105.88
2023-01-11T03:06:36.636Z,98106.00
2023-01-11T03:12:29.475Z,98101.78
2023-01-11T03:18:06.477Z,98096.16
2023-01-11T03:23:43.545Z,98100.53
2023-01-11T03:29:15.503Z,98090.59
2023-01-11T03:34:44.504Z,98083.56
2023-01-11T03:40:16.542Z,98090.00
2023-01-11T03:45:45.503Z,98080.16
2023-01-11T03:51:12.504Z,98074.72
2023-01-11T03:56:46.536Z,98071.53
2023-01-11T04:02:11.521Z,98055.41
2023-01-11T04:07:36.519Z,98066.75
2023-01-11T04:13:05.559Z,98055.00
2023-01-11T04:18:30.537Z,98065.38
2023-01-11T04:23:54.535Z,98062.63
2023-01-11T04:29:22.554Z,98053.63
2023-01-11T04:34:46.534Z,98040.97
2023-01-11T04:40:11.538Z,98032.00
2023-01-11T04:45:39.578Z,98031.03
2023-01-11T04:51:04.534Z,98046.59
2023-01-11T04:56:28.536Z,98029.63
2023-01-11T05:01:56.546Z,98026.97
2023-01-11T05:07:22.571Z,98019.78
2023-01-11T05:12:47.580Z,98023.31
2023-01-11T05:18:14.584Z,98019.78
2023-01-11T05:23:39.580Z,98018.56
2023-01-11T05:29:04.565Z,98012.94
2023-01-11T05:34:32.598Z,98015.47
2023-01-11T05:39:56.581Z,97994.13
2023-01-11T05:45:40.668Z,98011.13
2023-01-11T05:51:08.545Z,98008.19
2023-01-11T05:56:33.576Z,98012.41
2023-01-11T06:01:58.633Z,98020.16
2023-01-11T06:07:25.594Z,98017.34
2023-01-11T06:12:50.568Z,97992.09
2023-01-11T06:18:14.605Z,97984.50
2023-01-11T06:23:44.555Z,98005.75
2023-01-11T06:29:02.564Z,97991.28
2023-01-11T06:34:27.576Z,97997.63
2023-01-11T06:39:55.585Z,98002.56
2023-01-11T06:45:27.625Z,98003.13
2023-01-11T06:50:52.622Z,98000.91
2023-01-11T06:56:19.600Z,97993.88
2023-01-11T07:01:44.648Z,97995.72
2023-01-11T07:07:08.661Z,97984.94
2023-01-11T07:12:36.600Z,97988.88
2023-01-11T07:18:00.598Z,97972.97
2023-01-11T07:23:25.629Z,97970.03
2023-01-11T07:28:52.603Z,97977.63
2023-01-11T07:34:17.609Z,97990.69
2023-01-11T07:39:44.188Z,97981.56
2023-01-11T07:45:17.687Z,97982.13
2023-01-11T07:50:44.718Z,97979.19
2023-01-11T07:56:10.617Z,97985.06
2023-01-11T08:01:38.717Z,97975.91
2023-01-11T08:07:02.641Z,97975.50
2023-01-11T08:12:39.627Z,97984.06
2023-01-11T08:18:06.631Z,97980.84
2023-01-11T08:23:31.665Z,97976.59
2023-01-11T08:28:49.647Z,97975.75
2023-01-11T08:34:16.629Z,97956.63
2023-01-11T08:39:41.622Z,97959.44
2023-01-11T08:45:12.642Z,97946.44
2023-01-11T08:50:40.641Z,97940.25
2023-01-11T08:56:05.640Z,97935.16
2023-01-11T09:01:31.401Z,97945.25
2023-01-11T09:06:58.681Z,97943.00
2023-01-11T09:12:23.670Z,97925.50
2023-01-11T09:17:47.669Z,97941.94
2023-01-11T09:23:16.669Z,97929.97
2023-01-11T09:28:40.773Z,97928.34
2023-01-11T09:34:05.751Z,97942.00
2023-01-11T09:39:34.693Z,97924.19
2023-01-11T09:45:03.648Z,97928.34
2023-01-11T09:50:32.679Z,97917.53
2023-01-11T09:56:04.007Z,97934.94
2023-01-11T10:01:36.764Z,97911.44
2023-01-11T10:07:20.687Z,97910.84
2023-01-11T10:19:30.891Z,97905.25
2023-01-11T10:24:50.710Z,97906.59
2023-01-11T10:30:51.757Z,97902.84
2023-01-11T10:36:37.701Z,97903.09
2023-01-11T10:42:11.697Z,97904.03
2023-01-11T10:47:47.730Z,97903.97
2023-01-11T10:53:23.728Z,97912.28
2023-01-11T10:59:15.732Z,97912.88
2023-01-11T11:04:47.754Z,97929.72
2023-01-11T11:10:22.751Z,97920.16
2023-01-11T11:15:56.765Z,97921.59
2023-01-11T11:21:32.722Z,97918.91
2023-01-11T11:27:02.780Z,97918.38
2023-01-11T11:32:34.024Z,97910.06
2023-01-11T11:38:02.799Z,97922.44
2023-01-11T11:43:30.751Z,97925.81
2023-01-11T11:48:55.731Z,97917.47
2023-01-11T11:54:31.713Z,97918.00
2023-01-11T12:00:04.763Z,97932.09
2023-01-11T12:05:29.780Z,97931.97
2023-01-11T12:11:03.840Z,97918.41
2023-01-11T12:16:30.763Z,97929.94
2023-01-11T12:21:54.781Z,97937.00
2023-01-11T12:27:35.768Z,97936.28
2023-01-11T12:33:26.757Z,97940.66
2023-01-11T12:39:03.748Z,97951.38
2023-01-11T12:44:43.826Z,97937.00
2023-01-11T12:50:17.780Z,97942.06
2023-01-11T12:55:51.791Z,97960.97
2023-01-11T13:01:43.864Z,97943.75
2023-01-11T13:07:14.766Z,97948.94
2023-01-11T13:12:48.763Z,97956.16
2023-01-11T13:18:22.810Z,97956.16
2023-01-11T13:23:52.791Z,97957.13
2023-01-11T13:29:20.959Z,97966.00
2023-01-11T13:34:52.884Z,97974.22
2023-01-11T13:40:23.985Z,97979.56
2023-01-11T13:45:54.839Z,97982.94
2023-01-11T13:51:33.806Z,97984.63
2023-01-11T13:57:05.805Z,97992.66
2023-01-11T14:02:38.810Z,97986.31
2023-01-11T14:08:32.829Z,97995.06
2023-01-11T14:14:24.871Z,98005.59
2023-01-11T14:19:54.808Z,98010.09
2023-01-11T14:25:30.851Z,98024.91
2023-01-11T14:31:18.835Z,98024.75
2023-01-11T14:37:12.792Z,98031.66
2023-01-11T14:43:12.797Z,98033.63
2023-01-11T14:48:45.855Z,98038.00
2023-01-11T14:54:15.820Z,98041.50
2023-01-11T14:59:55.870Z,98044.19
2023-01-11T15:05:42.817Z,98057.59
2023-01-11T15:11:15.819Z,98057.75
2023-01-11T15:17:05.746Z,98069.63
2023-01-11T15:22:46.867Z,98076.09
2023-01-11T15:28:33.834Z,98078.09
2023-01-11T15:34:05.932Z,98089.13
2023-01-11T15:39:49.159Z,98100.81
2023-01-11T15:45:34.865Z,98100.13
2023-01-11T15:51:26.979Z,98107.44
2023-01-11T15:57:08.866Z,98104.94
2023-01-11T16:03:23.893Z,98098.03
2023-01-11T16:08:59.911Z,98103.09
2023-01-11T16:14:47.880Z,98103.25
2023-01-11T16:20:13.877Z,98099.69
2023-01-11T16:25:46.995Z,98111.28
2023-01-11T16:31:17.552Z,98116.78
2023-01-11T16:36:48.907Z,98125.13
2023-01-11T16:42:18.960Z,98131.75
2023-01-11T16:47:44.879Z,98129.78
2023-01-11T16:53:11.879Z,98132.44
2023-01-11T16:58:41.868Z,98110.13
2023-01-11T17:04:12.784Z,98097.41
2023-01-11T17:09:42.536Z,98084.50
2023-01-11T17:15:23.923Z,98085.03
2023-01-11T17:20:48.946Z,98091.88
2023-01-11T17:26:14.840Z,98095.81
2023-01-11T17:31:45.923Z,98101.81
2023-01-11T17:37:16.904Z,98105.69
2023-01-11T17:42:54.913Z,98115.66
2023-01-11T17:48:28.938Z,98134.41
2023-01-11T17:53:58.925Z,98133.72
2023-01-11T17:59:35.921Z,98137.97
2023-01-11T18:05:09.096Z,98157.59
2023-01-11T18:10:36.902Z,98151.44
2023-01-11T18:16:02.997Z,98163.28
2023-01-11T18:22:05.957Z,98174.25
2023-01-11T18:27:39.911Z,98183.56
2023-01-11T18:33:06.943Z,98198.91
2023-01-11T18:38:41.899Z,98193.41
2023-01-11T18:44:08.915Z,98213.84
2023-01-11T18:49:35.970Z,98205.38
2023-01-11T18:55:05.944Z,98203.69
2023-01-11T19:00:39.003Z,98209.75
2023-01-11T19:06:03.956Z,98213.44
2023-01-11T19:11:32.024Z,98202.16
2023-01-11T19:16:57.971Z,98201.84
2023-01-11T19:22:26.169Z,98209.88
2023-01-11T19:27:55.138Z,98212.09
2023-01-11T19:33:21.001Z,98216.75
2023-01-11T19:39:08.960Z,98211.41
2023-01-11T19:44:41.807Z,98224.06
2023-01-11T19:50:07.967Z,98220.22
2023-01-11T19:55:36.959Z,98224.41
2023-01-11T20:01:13.999Z,98229.75
2023-01-11T20:06:38.955Z,98228.31
2023-01-11T20:12:04.992Z,98236.00
2023-01-11T20:17:33.003Z,98232.97
2023-01-11T20:22:59.986Z,98239.59
2023-01-11T20:28:26.948Z,98240.44
2023-01-11T20:33:54.002Z,98250.38
2023-01-11T20:39:19.987Z,98254.19
2023-01-11T20:44:45.000Z,98256.50
2023-01-11T20:50:25.714Z,98245.53
2023-01-11T20:55:57.615Z,98240.03
2023-01-11T21:01:29.176Z,98233.53
2023-01-11T21:06:58.072Z,98227.22
2023-01-11T21:12:24.015Z,98214.81
2023-01-11T21:17:49.031Z,98214.91
2023-01-11T21:23:16.084Z,98210.72
2023-01-11T21:28:41.024Z,98195.25
2023-01-11T21:34:06.099Z,98213.38
2023-01-11T21:39:34.026Z,98206.66
2023-01-11T21:44:58.044Z,98213.13
2023-01-11T21:50:23.023Z,98220.84
2023-01-11T21:55:50.035Z,98222.34
2023-01-11T22:01:26.053Z,98225.41
2023-01-11T22:06:54.157Z,98228.75
2023-01-11T22:12:21.055Z,98241.88
2023-01-11T22:17:46.057Z,98264.16
2023-01-11T22:23:11.021Z,98267.69
2023-01-11T22:28:39.126Z,98269.59
2023-01-11T22:34:04.064Z,98267.81
2023-01-11T22:39:31.047Z,98275.38
2023-01-11T22:45:00.043Z,98272.22
2023-01-11T22:50:26.027Z,98266.53
2023-01-11T22:55:50.074Z,98257.44
2023-01-11T23:01:32.095Z,98261.53
2023-01-11T23:06:57.063Z,98258.41
2023-01-11T23:12:35.057Z,98257.81
2023-01-11T23:18:03.031Z,98261.56
2023-01-11T23:23:29.176Z,98265.72
2023-01-11T23:28:55.072Z,98270.09
2023-01-11T23:34:22.044Z,98258.34
2023-01-11T23:39:47.107Z,98253.03
2023-01-11T23:45:13.040Z,98254.34
2023-01-11T23:50:41.064Z,98268.16
2023-01-11T23:56:10.114Z,98261.72
